sensor_id;sensor_type;location;lat;lon;timestamp;P1;durP1;ratioP1;P2;durP2;ratioP2
60867;SDS011;46702;48.370;10.794;2022-08-23T00:01:38;2.45;;;2.25;;
60867;SDS011;46702;48.370;10.794;2022-08-23T00:04:12;2.28;;;2.05;;
60867;SDS011;46702;48.370;10.794;2022-08-23T00:06:40;3.25;;;2.08;;
60867;SDS011;46702;48.370;10.794;2022-08-23T00:09:07;2.85;;;1.92;;
60867;SDS011;46702;48.370;10.794;2022-08-23T00:11:35;4.22;;;2.28;;
60867;SDS011;46702;48.370;10.794;2022-08-23T00:14:11;3.78;;;2.13;;
60867;SDS011;46702;48.370;10.794;2022-08-23T00:16:48;2.50;;;2.30;;
60867;SDS011;46702;48.370;10.794;2022-08-23T00:19:15;3.60;;;2.10;;
60867;SDS011;46702;48.370;10.794;2022-08-23T00:21:42;2.20;;;2.10;;
60867;SDS011;46702;48.370;10.794;2022-08-23T00:24:09;4.43;;;2.67;;
60867;SDS011;46702;48.370;10.794;2022-08-23T00:29:21;3.10;;;2.30;;
60867;SDS011;46702;48.370;10.794;2022-08-23T00:31:48;6.95;;;2.28;;
60867;SDS011;46702;48.370;10.794;2022-08-23T00:34:15;2.20;;;2.10;;
60867;SDS011;46702;48.370;10.794;2022-08-23T00:36:40;2.30;;;1.90;;
60867;SDS011;46702;48.370;10.794;2022-08-23T00:39:07;2.28;;;2.10;;
60867;SDS011;46702;48.370;10.794;2022-08-23T00:41:33;3.42;;;2.65;;
60867;SDS011;46702;48.370;10.794;2022-08-23T00:43:59;3.53;;;2.50;;
60867;SDS011;46702;48.370;10.794;2022-08-23T00:49:35;2.45;;;2.25;;
60867;SDS011;46702;48.370;10.794;2022-08-23T00:52:11;1.60;;;1.50;;
60867;SDS011;46702;48.370;10.794;2022-08-23T00:54:44;1.42;;;1.35;;
60867;SDS011;46702;48.370;10.794;2022-08-23T00:57:12;1.30;;;1.20;;
60867;SDS011;46702;48.370;10.794;2022-08-23T00:59:40;1.50;;;1.40;;
60867;SDS011;46702;48.370;10.794;2022-08-23T01:02:06;2.83;;;2.42;;
60867;SDS011;46702;48.370;10.794;2022-08-23T01:04:36;2.15;;;1.95;;
60867;SDS011;46702;48.370;10.794;2022-08-23T01:09:39;1.67;;;1.30;;
60867;SDS011;46702;48.370;10.794;2022-08-23T01:12:09;0.98;;;0.98;;
60867;SDS011;46702;48.370;10.794;2022-08-23T01:14:53;1.05;;;1.02;;
60867;SDS011;46702;48.370;10.794;2022-08-23T01:17:27;3.13;;;2.00;;
60867;SDS011;46702;48.370;10.794;2022-08-23T01:20:00;2.95;;;2.20;;
60867;SDS011;46702;48.370;10.794;2022-08-23T01:22:36;2.65;;;2.10;;
60867;SDS011;46702;48.370;10.794;2022-08-23T01:25:10;4.82;;;2.30;;
60867;SDS011;46702;48.370;10.794;2022-08-23T01:27:39;2.90;;;2.30;;
60867;SDS011;46702;48.370;10.794;2022-08-23T01:30:06;3.72;;;2.50;;
60867;SDS011;46702;48.370;10.794;2022-08-23T01:32:36;2.67;;;2.30;;
60867;SDS011;46702;48.370;10.794;2022-08-23T01:35:07;2.58;;;2.38;;
60867;SDS011;46702;48.370;10.794;2022-08-23T01:37:33;3.03;;;2.30;;
60867;SDS011;46702;48.370;10.794;2022-08-23T01:39:59;3.63;;;2.30;;
60867;SDS011;46702;48.370;10.794;2022-08-23T01:42:24;2.97;;;2.42;;
60867;SDS011;46702;48.370;10.794;2022-08-23T01:44:50;2.75;;;1.70;;
60867;SDS011;46702;48.370;10.794;2022-08-23T01:47:16;1.65;;;1.52;;
60867;SDS011;46702;48.370;10.794;2022-08-23T01:49:42;1.75;;;1.65;;
60867;SDS011;46702;48.370;10.794;2022-08-23T01:52:07;1.90;;;1.80;;
60867;SDS011;46702;48.370;10.794;2022-08-23T02:24:56;4.60;;;2.60;;
60867;SDS011;46702;48.370;10.794;2022-08-23T02:27:22;2.42;;;2.17;;
60867;SDS011;46702;48.370;10.794;2022-08-23T02:29:48;3.00;;;2.50;;
60867;SDS011;46702;48.370;10.794;2022-08-23T02:32:14;3.05;;;2.33;;
60867;SDS011;46702;48.370;10.794;2022-08-23T02:34:42;2.50;;;2.33;;
60867;SDS011;46702;48.370;10.794;2022-08-23T02:37:09;2.75;;;2.38;;
60867;SDS011;46702;48.370;10.794;2022-08-23T02:39:36;3.70;;;2.27;;
60867;SDS011;46702;48.370;10.794;2022-08-23T02:42:02;2.92;;;2.45;;
60867;SDS011;46702;48.370;10.794;2022-08-23T02:44:28;3.63;;;2.30;;
60867;SDS011;46702;48.370;10.794;2022-08-23T02:46:55;2.42;;;2.08;;
60867;SDS011;46702;48.370;10.794;2022-08-23T02:49:21;2.65;;;2.45;;
60867;SDS011;46702;48.370;10.794;2022-08-23T02:51:46;3.85;;;2.72;;
60867;SDS011;46702;48.370;10.794;2022-08-23T02:54:12;5.03;;;2.92;;
60867;SDS011;46702;48.370;10.794;2022-08-23T02:56:38;8.98;;;6.13;;
60867;SDS011;46702;48.370;10.794;2022-08-23T02:59:04;2.90;;;2.70;;
60867;SDS011;46702;48.370;10.794;2022-08-23T03:01:32;2.60;;;2.40;;
60867;SDS011;46702;48.370;10.794;2022-08-23T03:04:04;4.18;;;2.67;;
60867;SDS011;46702;48.370;10.794;2022-08-23T03:06:31;3.92;;;3.53;;
60867;SDS011;46702;48.370;10.794;2022-08-23T03:08:56;4.07;;;3.47;;
60867;SDS011;46702;48.370;10.794;2022-08-23T03:11:22;4.65;;;2.80;;
60867;SDS011;46702;48.370;10.794;2022-08-23T03:13:49;2.55;;;2.35;;
60867;SDS011;46702;48.370;10.794;2022-08-23T03:16:15;2.95;;;2.67;;
60867;SDS011;46702;48.370;10.794;2022-08-23T03:18:42;5.60;;;2.65;;
60867;SDS011;46702;48.370;10.794;2022-08-23T03:21:08;3.90;;;2.35;;
60867;SDS011;46702;48.370;10.794;2022-08-23T03:23:34;3.45;;;2.47;;
60867;SDS011;46702;48.370;10.794;2022-08-23T03:26:02;2.60;;;2.08;;
60867;SDS011;46702;48.370;10.794;2022-08-23T03:28:28;2.67;;;2.47;;
60867;SDS011;46702;48.370;10.794;2022-08-23T03:30:55;2.55;;;2.28;;
60867;SDS011;46702;48.370;10.794;2022-08-23T03:33:21;2.55;;;2.13;;
60867;SDS011;46702;48.370;10.794;2022-08-23T03:35:47;2.47;;;2.28;;
60867;SDS011;46702;48.370;10.794;2022-08-23T03:38:14;2.72;;;2.53;;
60867;SDS011;46702;48.370;10.794;2022-08-23T03:40:40;1.90;;;1.80;;
60867;SDS011;46702;48.370;10.794;2022-08-23T03:43:06;2.45;;;2.25;;
60867;SDS011;46702;48.370;10.794;2022-08-23T03:45:32;2.55;;;2.35;;
60867;SDS011;46702;48.370;10.794;2022-08-23T03:47:58;3.33;;;2.65;;
60867;SDS011;46702;48.370;10.794;2022-08-23T03:50:23;2.40;;;2.20;;
60867;SDS011;46702;48.370;10.794;2022-08-23T03:52:50;2.65;;;2.45;;
60867;SDS011;46702;48.370;10.794;2022-08-23T03:55:16;3.38;;;2.75;;
60867;SDS011;46702;48.370;10.794;2022-08-23T03:57:41;3.95;;;2.65;;
60867;SDS011;46702;48.370;10.794;2022-08-23T04:00:08;4.38;;;2.83;;
60867;SDS011;46702;48.370;10.794;2022-08-23T04:02:36;2.70;;;2.47;;
60867;SDS011;46702;48.370;10.794;2022-08-23T04:05:02;4.43;;;2.72;;
60867;SDS011;46702;48.370;10.794;2022-08-23T04:07:28;5.28;;;2.85;;
60867;SDS011;46702;48.370;10.794;2022-08-23T04:09:54;2.92;;;2.17;;
60867;SDS011;46702;48.370;10.794;2022-08-23T04:12:20;2.60;;;2.40;;
60867;SDS011;46702;48.370;10.794;2022-08-23T04:14:47;3.03;;;2.13;;
60867;SDS011;46702;48.370;10.794;2022-08-23T04:17:13;3.85;;;2.30;;
60867;SDS011;46702;48.370;10.794;2022-08-23T04:19:39;3.53;;;2.38;;
60867;SDS011;46702;48.370;10.794;2022-08-23T04:22:10;6.22;;;2.70;;
60867;SDS011;46702;48.370;10.794;2022-08-23T04:24:37;3.05;;;2.70;;
60867;SDS011;46702;48.370;10.794;2022-08-23T04:27:03;3.00;;;2.80;;
60867;SDS011;46702;48.370;10.794;2022-08-23T04:29:29;3.60;;;2.50;;
60867;SDS011;46702;48.370;10.794;2022-08-23T04:31:55;4.95;;;2.58;;
60867;SDS011;46702;48.370;10.794;2022-08-23T04:34:21;3.03;;;2.38;;
60867;SDS011;46702;48.370;10.794;2022-08-23T04:36:46;4.55;;;2.80;;
60867;SDS011;46702;48.370;10.794;2022-08-23T04:39:13;3.13;;;2.47;;
60867;SDS011;46702;48.370;10.794;2022-08-23T04:41:39;3.95;;;2.90;;
60867;SDS011;46702;48.370;10.794;2022-08-23T04:44:24;4.68;;;2.60;;
60867;SDS011;46702;48.370;10.794;2022-08-23T04:46:49;3.72;;;2.70;;
60867;SDS011;46702;48.370;10.794;2022-08-23T04:49:15;2.78;;;2.58;;
60867;SDS011;46702;48.370;10.794;2022-08-23T04:51:42;4.18;;;2.80;;
60867;SDS011;46702;48.370;10.794;2022-08-23T04:54:07;2.50;;;2.20;;
60867;SDS011;46702;48.370;10.794;2022-08-23T04:56:33;2.95;;;2.65;;
60867;SDS011;46702;48.370;10.794;2022-08-23T04:58:59;4.00;;;2.83;;
60867;SDS011;46702;48.370;10.794;2022-08-23T05:01:25;3.75;;;2.80;;
60867;SDS011;46702;48.370;10.794;2022-08-23T05:03:51;2.95;;;2.67;;
60867;SDS011;46702;48.370;10.794;2022-08-23T05:06:17;3.70;;;2.92;;
60867;SDS011;46702;48.370;10.794;2022-08-23T05:08:43;3.15;;;2.40;;
60867;SDS011;46702;48.370;10.794;2022-08-23T05:11:09;4.20;;;2.97;;
60867;SDS011;46702;48.370;10.794;2022-08-23T05:13:36;3.47;;;2.80;;
60867;SDS011;46702;48.370;10.794;2022-08-23T05:16:03;2.70;;;2.50;;
60867;SDS011;46702;48.370;10.794;2022-08-23T05:18:30;2.80;;;2.45;;
60867;SDS011;46702;48.370;10.794;2022-08-23T05:20:57;2.60;;;2.40;;
60867;SDS011;46702;48.370;10.794;2022-08-23T05:23:23;5.00;;;2.67;;
60867;SDS011;46702;48.370;10.794;2022-08-23T05:25:49;2.78;;;2.58;;
60867;SDS011;46702;48.370;10.794;2022-08-23T05:31:02;6.15;;;2.92;;
60867;SDS011;46702;48.370;10.794;2022-08-23T05:33:30;3.03;;;2.60;;
60867;SDS011;46702;48.370;10.794;2022-08-23T05:35:57;3.08;;;2.40;;
60867;SDS011;46702;48.370;10.794;2022-08-23T05:38:24;3.30;;;2.70;;
60867;SDS011;46702;48.370;10.794;2022-08-23T05:40:51;2.70;;;2.50;;
60867;SDS011;46702;48.370;10.794;2022-08-23T05:43:19;4.03;;;2.80;;
60867;SDS011;46702;48.370;10.794;2022-08-23T05:45:44;3.75;;;2.72;;
60867;SDS011;46702;48.370;10.794;2022-08-23T05:48:11;2.95;;;2.75;;
60867;SDS011;46702;48.370;10.794;2022-08-23T05:50:37;3.00;;;2.80;;
60867;SDS011;46702;48.370;10.794;2022-08-23T05:53:04;4.53;;;3.05;;
60867;SDS011;46702;48.370;10.794;2022-08-23T05:55:30;3.25;;;2.95;;
60867;SDS011;46702;48.370;10.794;2022-08-23T05:57:56;3.10;;;2.72;;
60867;SDS011;46702;48.370;10.794;2022-08-23T06:00:21;3.42;;;2.90;;
60867;SDS011;46702;48.370;10.794;2022-08-23T06:02:47;3.03;;;2.72;;
60867;SDS011;46702;48.370;10.794;2022-08-23T06:05:13;3.30;;;3.00;;
60867;SDS011;46702;48.370;10.794;2022-08-23T06:07:40;4.07;;;3.00;;
60867;SDS011;46702;48.370;10.794;2022-08-23T06:10:06;3.45;;;3.15;;
60867;SDS011;46702;48.370;10.794;2022-08-23T06:12:33;4.97;;;3.30;;
60867;SDS011;46702;48.370;10.794;2022-08-23T06:14:59;4.07;;;3.40;;
60867;SDS011;46702;48.370;10.794;2022-08-23T06:17:26;5.13;;;3.15;;
60867;SDS011;46702;48.370;10.794;2022-08-23T06:19:52;5.03;;;3.60;;
60867;SDS011;46702;48.370;10.794;2022-08-23T06:22:18;4.57;;;3.38;;
60867;SDS011;46702;48.370;10.794;2022-08-23T06:24:44;5.75;;;3.35;;
60867;SDS011;46702;48.370;10.794;2022-08-23T06:27:10;3.38;;;3.03;;
60867;SDS011;46702;48.370;10.794;2022-08-23T06:29:36;3.78;;;3.47;;
60867;SDS011;46702;48.370;10.794;2022-08-23T06:32:03;3.60;;;3.22;;
60867;SDS011;46702;48.370;10.794;2022-08-23T06:34:32;3.45;;;3.08;;
60867;SDS011;46702;48.370;10.794;2022-08-23T06:37:01;3.63;;;3.20;;
60867;SDS011;46702;48.370;10.794;2022-08-23T06:39:38;3.50;;;3.20;;
60867;SDS011;46702;48.370;10.794;2022-08-23T06:42:09;3.55;;;3.25;;
60867;SDS011;46702;48.370;10.794;2022-08-23T06:44:37;3.60;;;3.30;;
60867;SDS011;46702;48.370;10.794;2022-08-23T06:47:03;6.50;;;3.00;;
60867;SDS011;46702;48.370;10.794;2022-08-23T06:49:29;5.28;;;3.05;;
60867;SDS011;46702;48.370;10.794;2022-08-23T06:51:56;4.93;;;3.88;;
60867;SDS011;46702;48.370;10.794;2022-08-23T06:54:25;4.07;;;3.30;;
60867;SDS011;46702;48.370;10.794;2022-08-23T06:56:53;4.53;;;3.45;;
60867;SDS011;46702;48.370;10.794;2022-08-23T06:59:20;8.10;;;3.25;;
60867;SDS011;46702;48.370;10.794;2022-08-23T07:04:18;4.43;;;3.33;;
60867;SDS011;46702;48.370;10.794;2022-08-23T07:06:49;4.05;;;3.30;;
60867;SDS011;46702;48.370;10.794;2022-08-23T07:09:15;3.05;;;2.75;;
60867;SDS011;46702;48.370;10.794;2022-08-23T07:11:42;5.20;;;3.80;;
60867;SDS011;46702;48.370;10.794;2022-08-23T07:14:09;4.78;;;3.40;;
60867;SDS011;46702;48.370;10.794;2022-08-23T07:16:37;3.58;;;3.30;;
60867;SDS011;46702;48.370;10.794;2022-08-23T07:19:09;4.20;;;3.42;;
60867;SDS011;46702;48.370;10.794;2022-08-23T07:21:35;4.10;;;3.30;;
60867;SDS011;46702;48.370;10.794;2022-08-23T07:24:02;3.50;;;3.20;;
60867;SDS011;46702;48.370;10.794;2022-08-23T07:26:29;4.03;;;3.63;;
60867;SDS011;46702;48.370;10.794;2022-08-23T07:28:55;4.93;;;3.70;;
60867;SDS011;46702;48.370;10.794;2022-08-23T07:33:51;3.55;;;3.10;;
60867;SDS011;46702;48.370;10.794;2022-08-23T07:36:18;5.63;;;3.88;;
60867;SDS011;46702;48.370;10.794;2022-08-23T07:38:46;3.58;;;3.30;;
60867;SDS011;46702;48.370;10.794;2022-08-23T07:41:12;3.47;;;3.28;;
60867;SDS011;46702;48.370;10.794;2022-08-23T07:43:39;3.55;;;3.10;;
60867;SDS011;46702;48.370;10.794;2022-08-23T07:46:06;3.85;;;3.13;;
60867;SDS011;46702;48.370;10.794;2022-08-23T07:48:32;3.92;;;3.50;;
60867;SDS011;46702;48.370;10.794;2022-08-23T07:50:59;3.55;;;3.05;;
60867;SDS011;46702;48.370;10.794;2022-08-23T07:53:26;3.90;;;2.92;;
60867;SDS011;46702;48.370;10.794;2022-08-23T07:55:52;4.72;;;3.45;;
60867;SDS011;46702;48.370;10.794;2022-08-23T07:58:19;3.50;;;3.20;;
60867;SDS011;46702;48.370;10.794;2022-08-23T08:00:45;4.00;;;3.63;;
60867;SDS011;46702;48.370;10.794;2022-08-23T08:03:12;5.30;;;3.35;;
60867;SDS011;46702;48.370;10.794;2022-08-23T08:05:39;3.28;;;2.97;;
60867;SDS011;46702;48.370;10.794;2022-08-23T08:08:04;3.60;;;3.30;;
60867;SDS011;46702;48.370;10.794;2022-08-23T08:10:31;4.20;;;3.20;;
60867;SDS011;46702;48.370;10.794;2022-08-23T08:12:59;3.33;;;3.03;;
60867;SDS011;46702;48.370;10.794;2022-08-23T08:15:25;3.17;;;2.72;;
60867;SDS011;46702;48.370;10.794;2022-08-23T08:17:51;3.63;;;3.20;;
60867;SDS011;46702;48.370;10.794;2022-08-23T08:20:17;7.90;;;3.00;;
60867;SDS011;46702;48.370;10.794;2022-08-23T08:22:44;2.75;;;2.55;;
60867;SDS011;46702;48.370;10.794;2022-08-23T08:25:12;4.05;;;2.78;;
60867;SDS011;46702;48.370;10.794;2022-08-23T08:27:38;3.30;;;2.35;;
60867;SDS011;46702;48.370;10.794;2022-08-23T08:30:05;3.08;;;2.60;;
60867;SDS011;46702;48.370;10.794;2022-08-23T08:32:32;2.90;;;2.55;;
60867;SDS011;46702;48.370;10.794;2022-08-23T08:34:58;3.00;;;2.80;;
60867;SDS011;46702;48.370;10.794;2022-08-23T08:37:24;3.08;;;2.30;;
60867;SDS011;46702;48.370;10.794;2022-08-23T08:39:50;2.60;;;2.42;;
60867;SDS011;46702;48.370;10.794;2022-08-23T08:44:57;3.63;;;2.92;;
60867;SDS011;46702;48.370;10.794;2022-08-23T08:50:27;3.35;;;2.60;;
60867;SDS011;46702;48.370;10.794;2022-08-23T08:53:02;2.95;;;2.50;;
60867;SDS011;46702;48.370;10.794;2022-08-23T08:55:52;2.60;;;2.40;;
60867;SDS011;46702;48.370;10.794;2022-08-23T08:58:27;4.43;;;3.03;;
60867;SDS011;46702;48.370;10.794;2022-08-23T09:00:57;5.03;;;2.40;;
60867;SDS011;46702;48.370;10.794;2022-08-23T09:03:23;4.43;;;2.50;;
60867;SDS011;46702;48.370;10.794;2022-08-23T09:05:59;2.88;;;2.33;;
60867;SDS011;46702;48.370;10.794;2022-08-23T09:19:15;2.40;;;2.17;;
60867;SDS011;46702;48.370;10.794;2022-08-23T09:24:12;2.50;;;2.30;;
60867;SDS011;46702;48.370;10.794;2022-08-23T09:26:38;2.58;;;2.13;;
60867;SDS011;46702;48.370;10.794;2022-08-23T09:29:25;3.42;;;2.20;;
60867;SDS011;46702;48.370;10.794;2022-08-23T09:31:53;7.97;;;2.47;;
60867;SDS011;46702;48.370;10.794;2022-08-23T09:34:36;2.35;;;2.10;;
60867;SDS011;46702;48.370;10.794;2022-08-23T09:39:38;2.20;;;2.00;;
60867;SDS011;46702;48.370;10.794;2022-08-23T09:42:08;2.72;;;2.30;;
60867;SDS011;46702;48.370;10.794;2022-08-23T09:44:52;2.33;;;2.08;;
60867;SDS011;46702;48.370;10.794;2022-08-23T09:47:18;3.72;;;2.33;;
60867;SDS011;46702;48.370;10.794;2022-08-23T09:49:44;3.00;;;2.35;;
60867;SDS011;46702;48.370;10.794;2022-08-23T09:52:31;3.30;;;2.55;;
60867;SDS011;46702;48.370;10.794;2022-08-23T09:54:59;4.63;;;2.42;;
60867;SDS011;46702;48.370;10.794;2022-08-23T09:57:29;2.72;;;2.42;;
60867;SDS011;46702;48.370;10.794;2022-08-23T10:00:39;3.78;;;2.20;;
60867;SDS011;46702;48.370;10.794;2022-08-23T10:02:47;2.53;;;2.00;;
60867;SDS011;46702;48.370;10.794;2022-08-23T10:07:43;2.60;;;2.40;;
60867;SDS011;46702;48.370;10.794;2022-08-23T10:12:53;2.55;;;2.08;;
60867;SDS011;46702;48.370;10.794;2022-08-23T10:15:42;3.47;;;2.63;;
60867;SDS011;46702;48.370;10.794;2022-08-23T10:23:53;5.57;;;2.72;;
60867;SDS011;46702;48.370;10.794;2022-08-23T10:26:24;2.75;;;2.55;;
60867;SDS011;46702;48.370;10.794;2022-08-23T10:28:57;2.67;;;2.42;;
60867;SDS011;46702;48.370;10.794;2022-08-23T10:32:00;2.50;;;2.28;;
60867;SDS011;46702;48.370;10.794;2022-08-23T10:34:41;4.82;;;2.88;;
60867;SDS011;46702;48.370;10.794;2022-08-23T10:45:25;3.08;;;2.25;;
60867;SDS011;46702;48.370;10.794;2022-08-23T10:47:58;4.22;;;2.47;;
60867;SDS011;46702;48.370;10.794;2022-08-23T10:50:40;3.15;;;2.60;;
60867;SDS011;46702;48.370;10.794;2022-08-23T10:53:12;3.53;;;2.53;;
60867;SDS011;46702;48.370;10.794;2022-08-23T10:55:42;2.60;;;2.40;;
60867;SDS011;46702;48.370;10.794;2022-08-23T10:58:27;3.92;;;2.40;;
60867;SDS011;46702;48.370;10.794;2022-08-23T11:00:57;3.65;;;2.80;;
60867;SDS011;46702;48.370;10.794;2022-08-23T11:09:07;5.18;;;2.33;;
60867;SDS011;46702;48.370;10.794;2022-08-23T11:12:04;3.13;;;2.17;;
60867;SDS011;46702;48.370;10.794;2022-08-23T11:17:06;6.35;;;2.80;;
60867;SDS011;46702;48.370;10.794;2022-08-23T11:22:22;3.60;;;2.25;;
60867;SDS011;46702;48.370;10.794;2022-08-23T11:25:00;3.45;;;2.55;;
60867;SDS011;46702;48.370;10.794;2022-08-23T11:32:56;3.87;;;2.37;;
60867;SDS011;46702;48.370;10.794;2022-08-23T11:38:05;2.28;;;2.10;;
60867;SDS011;46702;48.370;10.794;2022-08-23T11:40:37;3.17;;;2.47;;
60867;SDS011;46702;48.370;10.794;2022-08-23T11:43:17;3.47;;;2.22;;
60867;SDS011;46702;48.370;10.794;2022-08-23T11:54:51;2.38;;;2.03;;
60867;SDS011;46702;48.370;10.794;2022-08-23T12:03:06;3.50;;;2.13;;
60867;SDS011;46702;48.370;10.794;2022-08-23T12:11:19;4.40;;;2.50;;
60867;SDS011;46702;48.370;10.794;2022-08-23T12:18:42;3.28;;;2.50;;
60867;SDS011;46702;48.370;10.794;2022-08-23T12:21:20;2.45;;;2.25;;
60867;SDS011;46702;48.370;10.794;2022-08-23T12:23:50;2.40;;;2.20;;
60867;SDS011;46702;48.370;10.794;2022-08-23T12:29:03;2.33;;;2.13;;
60867;SDS011;46702;48.370;10.794;2022-08-23T12:31:51;3.92;;;2.35;;
60867;SDS011;46702;48.370;10.794;2022-08-23T12:34:25;2.42;;;2.10;;
60867;SDS011;46702;48.370;10.794;2022-08-23T12:37:05;3.03;;;2.30;;
60867;SDS011;46702;48.370;10.794;2022-08-23T12:39:49;3.72;;;2.10;;
60867;SDS011;46702;48.370;10.794;2022-08-23T12:42:23;3.30;;;1.85;;
60867;SDS011;46702;48.370;10.794;2022-08-23T12:47:54;3.47;;;2.33;;
60867;SDS011;46702;48.370;10.794;2022-08-23T12:50:26;7.72;;;2.40;;
60867;SDS011;46702;48.370;10.794;2022-08-23T12:53:04;3.92;;;2.40;;
60867;SDS011;46702;48.370;10.794;2022-08-23T12:55:33;2.33;;;2.13;;
60867;SDS011;46702;48.370;10.794;2022-08-23T12:58:02;2.22;;;2.00;;
60867;SDS011;46702;48.370;10.794;2022-08-23T13:00:30;2.57;;;2.27;;
60867;SDS011;46702;48.370;10.794;2022-08-23T13:05:36;2.83;;;2.22;;
60867;SDS011;46702;48.370;10.794;2022-08-23T13:08:07;3.75;;;2.55;;
60867;SDS011;46702;48.370;10.794;2022-08-23T13:10:36;3.42;;;2.55;;
60867;SDS011;46702;48.370;10.794;2022-08-23T13:13:04;2.92;;;2.08;;
60867;SDS011;46702;48.370;10.794;2022-08-23T13:15:44;3.00;;;2.08;;
60867;SDS011;46702;48.370;10.794;2022-08-23T13:18:32;3.22;;;2.20;;
60867;SDS011;46702;48.370;10.794;2022-08-23T13:26:40;2.70;;;2.17;;
60867;SDS011;46702;48.370;10.794;2022-08-23T13:31:53;2.40;;;2.20;;
60867;SDS011;46702;48.370;10.794;2022-08-23T13:34:31;4.63;;;2.40;;
60867;SDS011;46702;48.370;10.794;2022-08-23T13:37:02;2.72;;;1.77;;
60867;SDS011;46702;48.370;10.794;2022-08-23T13:39:30;2.97;;;2.33;;
60867;SDS011;46702;48.370;10.794;2022-08-23T13:41:57;3.10;;;2.40;;
60867;SDS011;46702;48.370;10.794;2022-08-23T13:44:23;2.83;;;2.08;;
60867;SDS011;46702;48.370;10.794;2022-08-23T13:46:50;2.17;;;2.00;;
60867;SDS011;46702;48.370;10.794;2022-08-23T13:52:01;4.28;;;2.20;;
60867;SDS011;46702;48.370;10.794;2022-08-23T13:54:33;4.32;;;2.22;;
60867;SDS011;46702;48.370;10.794;2022-08-23T13:56:59;3.80;;;2.55;;
60867;SDS011;46702;48.370;10.794;2022-08-23T13:59:38;3.17;;;2.45;;
60867;SDS011;46702;48.370;10.794;2022-08-23T14:02:09;4.32;;;2.40;;
60867;SDS011;46702;48.370;10.794;2022-08-23T14:04:38;2.30;;;2.08;;
60867;SDS011;46702;48.370;10.794;2022-08-23T14:07:04;2.20;;;2.00;;
60867;SDS011;46702;48.370;10.794;2022-08-23T14:09:30;2.50;;;2.30;;
60867;SDS011;46702;48.370;10.794;2022-08-23T14:11:58;4.05;;;2.30;;
60867;SDS011;46702;48.370;10.794;2022-08-23T14:14:29;2.38;;;2.15;;
60867;SDS011;46702;48.370;10.794;2022-08-23T14:16:56;4.78;;;2.50;;
60867;SDS011;46702;48.370;10.794;2022-08-23T14:19:22;4.15;;;2.50;;
60867;SDS011;46702;48.370;10.794;2022-08-23T14:21:47;4.30;;;2.28;;
60867;SDS011;46702;48.370;10.794;2022-08-23T14:24:13;3.08;;;2.38;;
60867;SDS011;46702;48.370;10.794;2022-08-23T14:26:38;4.63;;;2.60;;
60867;SDS011;46702;48.370;10.794;2022-08-23T14:29:04;2.60;;;2.40;;
60867;SDS011;46702;48.370;10.794;2022-08-23T14:31:30;2.15;;;2.00;;
60867;SDS011;46702;48.370;10.794;2022-08-23T14:33:56;2.38;;;2.25;;
60867;SDS011;46702;48.370;10.794;2022-08-23T14:36:22;3.00;;;2.38;;
60867;SDS011;46702;48.370;10.794;2022-08-23T14:38:47;2.47;;;2.28;;
60867;SDS011;46702;48.370;10.794;2022-08-23T14:41:16;2.70;;;2.13;;
60867;SDS011;46702;48.370;10.794;2022-08-23T14:43:45;2.40;;;2.20;;
60867;SDS011;46702;48.370;10.794;2022-08-23T14:46:11;2.30;;;2.10;;
60867;SDS011;46702;48.370;10.794;2022-08-23T14:48:37;2.65;;;2.30;;
60867;SDS011;46702;48.370;10.794;2022-08-23T14:51:03;2.30;;;2.10;;
60867;SDS011;46702;48.370;10.794;2022-08-23T14:53:30;2.47;;;2.20;;
60867;SDS011;46702;48.370;10.794;2022-08-23T14:55:57;3.80;;;2.45;;
60867;SDS011;46702;48.370;10.794;2022-08-23T14:58:23;2.80;;;2.30;;
60867;SDS011;46702;48.370;10.794;2022-08-23T15:00:50;4.25;;;2.58;;
60867;SDS011;46702;48.370;10.794;2022-08-23T15:03:22;3.05;;;2.30;;
60867;SDS011;46702;48.370;10.794;2022-08-23T15:05:49;3.22;;;2.30;;
60867;SDS011;46702;48.370;10.794;2022-08-23T15:08:15;2.85;;;2.33;;
60867;SDS011;46702;48.370;10.794;2022-08-23T15:10:41;3.00;;;2.30;;
60867;SDS011;46702;48.370;10.794;2022-08-23T15:13:07;2.58;;;2.03;;
60867;SDS011;46702;48.370;10.794;2022-08-23T15:15:32;2.60;;;2.30;;
60867;SDS011;46702;48.370;10.794;2022-08-23T15:17:59;2.22;;;2.10;;
60867;SDS011;46702;48.370;10.794;2022-08-23T15:20:29;2.28;;;2.08;;
60867;SDS011;46702;48.370;10.794;2022-08-23T15:22:57;2.72;;;2.17;;
60867;SDS011;46702;48.370;10.794;2022-08-23T15:25:24;3.38;;;2.58;;
60867;SDS011;46702;48.370;10.794;2022-08-23T15:27:52;4.13;;;2.50;;
60867;SDS011;46702;48.370;10.794;2022-08-23T15:30:18;3.25;;;2.47;;
60867;SDS011;46702;48.370;10.794;2022-08-23T15:32:44;3.13;;;2.47;;
60867;SDS011;46702;48.370;10.794;2022-08-23T15:35:10;4.65;;;2.53;;
60867;SDS011;46702;48.370;10.794;2022-08-23T15:37:37;5.25;;;2.15;;
60867;SDS011;46702;48.370;10.794;2022-08-23T15:40:03;4.28;;;2.35;;
60867;SDS011;46702;48.370;10.794;2022-08-23T15:42:30;4.07;;;2.50;;
60867;SDS011;46702;48.370;10.794;2022-08-23T15:44:56;2.45;;;2.25;;
60867;SDS011;46702;48.370;10.794;2022-08-23T15:47:23;2.83;;;2.10;;
60867;SDS011;46702;48.370;10.794;2022-08-23T15:49:52;2.95;;;2.42;;
60867;SDS011;46702;48.370;10.794;2022-08-23T15:52:18;2.33;;;2.10;;
60867;SDS011;46702;48.370;10.794;2022-08-23T15:54:45;2.72;;;2.45;;
60867;SDS011;46702;48.370;10.794;2022-08-23T15:57:15;2.65;;;2.45;;
60867;SDS011;46702;48.370;10.794;2022-08-23T15:59:42;2.33;;;2.08;;
60867;SDS011;46702;48.370;10.794;2022-08-23T16:02:08;2.50;;;2.25;;
60867;SDS011;46702;48.370;10.794;2022-08-23T16:04:34;5.38;;;2.22;;
60867;SDS011;46702;48.370;10.794;2022-08-23T16:07:00;3.25;;;2.70;;
60867;SDS011;46702;48.370;10.794;2022-08-23T16:09:32;3.05;;;2.25;;
60867;SDS011;46702;48.370;10.794;2022-08-23T16:11:59;3.17;;;2.30;;
60867;SDS011;46702;48.370;10.794;2022-08-23T16:14:25;3.70;;;2.50;;
60867;SDS011;46702;48.370;10.794;2022-08-23T16:16:50;2.40;;;2.20;;
60867;SDS011;46702;48.370;10.794;2022-08-23T16:19:16;3.78;;;2.33;;
60867;SDS011;46702;48.370;10.794;2022-08-23T16:21:42;2.65;;;2.45;;
60867;SDS011;46702;48.370;10.794;2022-08-23T16:24:08;3.00;;;2.30;;
60867;SDS011;46702;48.370;10.794;2022-08-23T16:26:35;4.38;;;2.50;;
60867;SDS011;46702;48.370;10.794;2022-08-23T16:29:04;3.67;;;2.38;;
60867;SDS011;46702;48.370;10.794;2022-08-23T16:31:32;2.53;;;2.22;;
60867;SDS011;46702;48.370;10.794;2022-08-23T16:33:58;4.57;;;2.33;;
60867;SDS011;46702;48.370;10.794;2022-08-23T16:36:25;3.07;;;2.40;;
60867;SDS011;46702;48.370;10.794;2022-08-23T16:38:51;3.78;;;2.50;;
60867;SDS011;46702;48.370;10.794;2022-08-23T16:41:21;2.95;;;2.17;;
60867;SDS011;46702;48.370;10.794;2022-08-23T16:43:48;3.42;;;2.35;;
60867;SDS011;46702;48.370;10.794;2022-08-23T16:46:14;2.30;;;2.10;;
60867;SDS011;46702;48.370;10.794;2022-08-23T16:48:41;2.90;;;2.40;;
60867;SDS011;46702;48.370;10.794;2022-08-23T16:51:08;3.83;;;2.60;;
60867;SDS011;46702;48.370;10.794;2022-08-23T16:53:35;2.42;;;2.22;;
60867;SDS011;46702;48.370;10.794;2022-08-23T16:56:01;2.50;;;2.20;;
60867;SDS011;46702;48.370;10.794;2022-08-23T16:58:27;2.40;;;2.20;;
60867;SDS011;46702;48.370;10.794;2022-08-23T17:00:53;7.38;;;2.55;;
60867;SDS011;46702;48.370;10.794;2022-08-23T17:03:19;4.07;;;2.33;;
60867;SDS011;46702;48.370;10.794;2022-08-23T17:05:46;2.92;;;2.35;;
60867;SDS011;46702;48.370;10.794;2022-08-23T17:08:11;2.22;;;2.08;;
60867;SDS011;46702;48.370;10.794;2022-08-23T17:10:38;2.58;;;2.20;;
60867;SDS011;46702;48.370;10.794;2022-08-23T17:13:04;2.40;;;2.20;;